sensor_id;sensor_type;location;lat;lon;timestamp;P1;durP1;ratioP1;P2;durP2;ratioP2
10166;SDS011;62970;53.130;8.244;2024-01-30T08:09:39;8.80;;;7.87;;
10166;SDS011;62970;53.130;8.244;2024-01-30T09:05:38;7.23;;;6.53;;
10166;SDS011;62970;53.130;8.244;2024-01-30T09:08:07;10.40;;;9.40;;
10166;SDS011;62970;53.130;8.244;2024-01-30T09:10:37;11.23;;;10.13;;
10166;SDS011;62970;53.130;8.244;2024-01-30T09:13:09;12.47;;;10.73;;
10166;SDS011;62970;53.130;8.244;2024-01-30T09:15:41;12.03;;;10.83;;
10166;SDS011;62970;53.130;8.244;2024-01-30T09:20:03;12.03;;;10.73;;
10166;SDS011;62970;53.130;8.244;2024-01-30T09:21:51;12.53;;;10.30;;
10166;SDS011;62970;53.130;8.244;2024-01-30T09:24:21;12.10;;;10.90;;
10166;SDS011;62970;53.130;8.244;2024-01-30T09:26:50;12.13;;;10.87;;
10166;SDS011;62970;53.130;8.244;2024-01-30T09:29:19;12.43;;;11.23;;
10166;SDS011;62970;53.130;8.244;2024-01-30T09:31:49;15.23;;;11.27;;
10166;SDS011;62970;53.130;8.244;2024-01-30T09:34:18;11.73;;;10.63;;
10166;SDS011;62970;53.130;8.244;2024-01-30T09:36:47;11.87;;;10.63;;
10166;SDS011;62970;53.130;8.244;2024-01-30T09:39:19;11.20;;;10.10;;
10166;SDS011;62970;53.130;8.244;2024-01-30T09:41:49;10.97;;;9.93;;
10166;SDS011;62970;53.130;8.244;2024-01-30T09:44:39;10.80;;;9.80;;
10166;SDS011;62970;53.130;8.244;2024-01-30T09:47:11;10.97;;;9.97;;
10166;SDS011;62970;53.130;8.244;2024-01-30T09:49:41;10.60;;;9.50;;
10166;SDS011;62970;53.130;8.244;2024-01-30T09:52:14;11.27;;;10.07;;
10166;SDS011;62970;53.130;8.244;2024-01-30T09:54:44;10.80;;;9.63;;
10166;SDS011;62970;53.130;8.244;2024-01-30T09:57:16;11.47;;;10.37;;
10166;SDS011;62970;53.130;8.244;2024-01-30T09:59:46;10.87;;;9.77;;
10166;SDS011;62970;53.130;8.244;2024-01-30T10:02:17;10.93;;;9.77;;
10166;SDS011;62970;53.130;8.244;2024-01-30T10:04:47;11.07;;;9.80;;
10166;SDS011;62970;53.130;8.244;2024-01-30T10:07:20;11.70;;;9.77;;
10166;SDS011;62970;53.130;8.244;2024-01-30T10:09:49;11.33;;;10.23;;
10166;SDS011;62970;53.130;8.244;2024-01-30T10:12:18;11.23;;;9.90;;
10166;SDS011;62970;53.130;8.244;2024-01-30T10:14:48;10.50;;;9.40;;
10166;SDS011;62970;53.130;8.244;2024-01-30T10:17:17;10.87;;;9.87;;
10166;SDS011;62970;53.130;8.244;2024-01-30T10:19:46;10.80;;;9.60;;
10166;SDS011;62970;53.130;8.244;2024-01-30T10:22:16;10.90;;;9.77;;
10166;SDS011;62970;53.130;8.244;2024-01-30T10:24:48;11.07;;;9.97;;
10166;SDS011;62970;53.130;8.244;2024-01-30T10:27:23;11.73;;;10.63;;
10166;SDS011;62970;53.130;8.244;2024-01-30T10:29:54;11.53;;;10.33;;
10166;SDS011;62970;53.130;8.244;2024-01-30T10:32:23;10.73;;;9.67;;
10166;SDS011;62970;53.130;8.244;2024-01-30T10:34:54;11.07;;;9.97;;
10166;SDS011;62970;53.130;8.244;2024-01-30T10:37:30;10.83;;;9.60;;
10166;SDS011;62970;53.130;8.244;2024-01-30T10:40:02;10.63;;;9.63;;
10166;SDS011;62970;53.130;8.244;2024-01-30T10:42:37;11.03;;;9.80;;
10166;SDS011;62970;53.130;8.244;2024-01-30T10:45:12;11.33;;;9.87;;
10166;SDS011;62970;53.130;8.244;2024-01-30T10:47:48;10.80;;;9.80;;
10166;SDS011;62970;53.130;8.244;2024-01-30T10:50:23;10.43;;;9.43;;
10166;SDS011;62970;53.130;8.244;2024-01-30T10:52:57;9.97;;;9.07;;
10166;SDS011;62970;53.130;8.244;2024-01-30T10:55:28;10.27;;;9.13;;
10166;SDS011;62970;53.130;8.244;2024-01-30T10:57:59;10.60;;;9.43;;
10166;SDS011;62970;53.130;8.244;2024-01-30T11:00:30;12.80;;;9.90;;
10166;SDS011;62970;53.130;8.244;2024-01-30T11:03:02;10.77;;;9.70;;
10166;SDS011;62970;53.130;8.244;2024-01-30T11:05:33;10.33;;;9.23;;
10166;SDS011;62970;53.130;8.244;2024-01-30T11:08:22;12.57;;;9.30;;
10166;SDS011;62970;53.130;8.244;2024-01-30T11:10:55;10.27;;;9.23;;
10166;SDS011;62970;53.130;8.244;2024-01-30T11:13:29;10.40;;;8.97;;
10166;SDS011;62970;53.130;8.244;2024-01-30T11:16:02;11.00;;;9.43;;
10166;SDS011;62970;53.130;8.244;2024-01-30T11:18:35;10.00;;;9.00;;
10166;SDS011;62970;53.130;8.244;2024-01-30T11:21:05;10.93;;;9.43;;
10166;SDS011;62970;53.130;8.244;2024-01-30T11:23:38;10.33;;;9.20;;
10166;SDS011;62970;53.130;8.244;2024-01-30T11:26:07;10.57;;;9.47;;
10166;SDS011;62970;53.130;8.244;2024-01-30T11:28:39;10.63;;;9.53;;
10166;SDS011;62970;53.130;8.244;2024-01-30T11:31:10;10.53;;;9.43;;
10166;SDS011;62970;53.130;8.244;2024-01-30T11:33:48;10.60;;;9.03;;
10166;SDS011;62970;53.130;8.244;2024-01-30T11:36:23;9.93;;;8.93;;
10166;SDS011;62970;53.130;8.244;2024-01-30T11:38:57;10.10;;;9.10;;
10166;SDS011;62970;53.130;8.244;2024-01-30T11:41:27;10.50;;;8.73;;
10166;SDS011;62970;53.130;8.244;2024-01-30T11:43:58;10.43;;;9.27;;
10166;SDS011;62970;53.130;8.244;2024-01-30T11:46:27;10.13;;;9.23;;
10166;SDS011;62970;53.130;8.244;2024-01-30T11:48:57;10.17;;;9.23;;
10166;SDS011;62970;53.130;8.244;2024-01-30T11:51:26;11.90;;;9.07;;
10166;SDS011;62970;53.130;8.244;2024-01-30T11:53:59;10.63;;;9.63;;
10166;SDS011;62970;53.130;8.244;2024-01-30T11:56:28;11.47;;;10.17;;
10166;SDS011;62970;53.130;8.244;2024-01-30T11:58:58;10.03;;;9.03;;
10166;SDS011;62970;53.130;8.244;2024-01-30T12:01:28;10.53;;;9.47;;
10166;SDS011;62970;53.130;8.244;2024-01-30T12:03:59;14.17;;;10.10;;
10166;SDS011;62970;53.130;8.244;2024-01-30T12:06:32;10.80;;;9.57;;
10166;SDS011;62970;53.130;8.244;2024-01-30T12:09:04;11.53;;;10.33;;
10166;SDS011;62970;53.130;8.244;2024-01-30T12:11:43;10.13;;;9.13;;
10166;SDS011;62970;53.130;8.244;2024-01-30T12:14:13;11.43;;;9.57;;
10166;SDS011;62970;53.130;8.244;2024-01-30T12:16:47;10.50;;;9.47;;
10166;SDS011;62970;53.130;8.244;2024-01-30T12:19:21;10.20;;;9.20;;
10166;SDS011;62970;53.130;8.244;2024-01-30T12:21:54;10.87;;;9.33;;
10166;SDS011;62970;53.130;8.244;2024-01-30T12:24:26;9.93;;;8.93;;
10166;SDS011;62970;53.130;8.244;2024-01-30T12:26:57;9.77;;;8.87;;
10166;SDS011;62970;53.130;8.244;2024-01-30T12:29:27;9.70;;;8.70;;
10166;SDS011;62970;53.130;8.244;2024-01-30T12:32:00;9.73;;;8.73;;
10166;SDS011;62970;53.130;8.244;2024-01-30T12:34:29;10.43;;;8.73;;
10166;SDS011;62970;53.130;8.244;2024-01-30T12:36:58;10.33;;;8.30;;
10166;SDS011;62970;53.130;8.244;2024-01-30T12:39:30;10.00;;;9.10;;
10166;SDS011;62970;53.130;8.244;2024-01-30T12:41:59;9.70;;;8.70;;
10166;SDS011;62970;53.130;8.244;2024-01-30T12:44:29;11.40;;;9.20;;
10166;SDS011;62970;53.130;8.244;2024-01-30T12:46:59;11.10;;;9.27;;
10166;SDS011;62970;53.130;8.244;2024-01-30T12:49:31;11.40;;;9.00;;
10166;SDS011;62970;53.130;8.244;2024-01-30T12:52:01;10.63;;;9.00;;
10166;SDS011;62970;53.130;8.244;2024-01-30T12:54:33;10.43;;;8.20;;
10166;SDS011;62970;53.130;8.244;2024-01-30T12:57:02;9.43;;;8.50;;
10166;SDS011;62970;53.130;8.244;2024-01-30T12:59:33;10.33;;;8.43;;
10166;SDS011;62970;53.130;8.244;2024-01-30T13:02:04;8.90;;;8.03;;
10166;SDS011;62970;53.130;8.244;2024-01-30T13:04:34;12.00;;;9.40;;
10166;SDS011;62970;53.130;8.244;2024-01-30T13:07:03;10.33;;;9.33;;
10166;SDS011;62970;53.130;8.244;2024-01-30T13:09:35;9.67;;;8.77;;
10166;SDS011;62970;53.130;8.244;2024-01-30T13:12:05;10.37;;;9.13;;
10166;SDS011;62970;53.130;8.244;2024-01-30T13:14:35;10.43;;;9.13;;
10166;SDS011;62970;53.130;8.244;2024-01-30T13:17:04;11.43;;;8.90;;
10166;SDS011;62970;53.130;8.244;2024-01-30T13:19:33;11.23;;;9.13;;
10166;SDS011;62970;53.130;8.244;2024-01-30T13:22:03;9.57;;;8.67;;
10166;SDS011;62970;53.130;8.244;2024-01-30T13:24:35;10.57;;;9.13;;
10166;SDS011;62970;53.130;8.244;2024-01-30T13:27:06;11.17;;;8.87;;
10166;SDS011;62970;53.130;8.244;2024-01-30T13:29:37;10.10;;;9.10;;
10166;SDS011;62970;53.130;8.244;2024-01-30T13:32:09;11.53;;;8.87;;
10166;SDS011;62970;53.130;8.244;2024-01-30T13:34:39;10.30;;;9.23;;
10166;SDS011;62970;53.130;8.244;2024-01-30T13:37:08;10.87;;;9.77;;
10166;SDS011;62970;53.130;8.244;2024-01-30T13:39:40;11.00;;;9.60;;
10166;SDS011;62970;53.130;8.244;2024-01-30T13:42:10;11.63;;;9.50;;
10166;SDS011;62970;53.130;8.244;2024-01-30T13:44:39;11.67;;;9.63;;
10166;SDS011;62970;53.130;8.244;2024-01-30T13:47:09;12.13;;;9.97;;
10166;SDS011;62970;53.130;8.244;2024-01-30T13:49:38;10.50;;;9.40;;
10166;SDS011;62970;53.130;8.244;2024-01-30T13:52:08;9.97;;;8.97;;
10166;SDS011;62970;53.130;8.244;2024-01-30T13:54:39;9.67;;;8.67;;
10166;SDS011;62970;53.130;8.244;2024-01-30T13:57:10;10.70;;;8.37;;
10166;SDS011;62970;53.130;8.244;2024-01-30T13:59:39;10.23;;;9.07;;
10166;SDS011;62970;53.130;8.244;2024-01-30T14:02:10;10.37;;;9.27;;
10166;SDS011;62970;53.130;8.244;2024-01-30T14:04:39;9.77;;;8.77;;
10166;SDS011;62970;53.130;8.244;2024-01-30T14:07:08;11.03;;;9.30;;
10166;SDS011;62970;53.130;8.244;2024-01-30T14:09:40;10.10;;;8.83;;
10166;SDS011;62970;53.130;8.244;2024-01-30T14:12:09;9.97;;;8.97;;
10166;SDS011;62970;53.130;8.244;2024-01-30T14:14:38;9.40;;;8.50;;
10166;SDS011;62970;53.130;8.244;2024-01-30T14:17:08;10.37;;;9.30;;
10166;SDS011;62970;53.130;8.244;2024-01-30T14:19:38;9.63;;;8.73;;
10166;SDS011;62970;53.130;8.244;2024-01-30T14:22:07;9.97;;;8.97;;
10166;SDS011;62970;53.130;8.244;2024-01-30T14:24:36;9.63;;;8.63;;
10166;SDS011;62970;53.130;8.244;2024-01-30T14:27:10;12.07;;;9.40;;
10166;SDS011;62970;53.130;8.244;2024-01-30T14:29:39;9.50;;;8.60;;
10166;SDS011;62970;53.130;8.244;2024-01-30T14:32:09;9.77;;;8.87;;
10166;SDS011;62970;53.130;8.244;2024-01-30T14:34:38;10.60;;;9.50;;
10166;SDS011;62970;53.130;8.244;2024-01-30T14:37:08;9.83;;;8.80;;
10166;SDS011;62970;53.130;8.244;2024-01-30T14:39:40;9.83;;;8.87;;
10166;SDS011;62970;53.130;8.244;2024-01-30T14:42:09;9.53;;;8.70;;
10166;SDS011;62970;53.130;8.244;2024-01-30T14:44:38;9.97;;;8.73;;
10166;SDS011;62970;53.130;8.244;2024-01-30T14:47:08;9.50;;;8.60;;
10166;SDS011;62970;53.130;8.244;2024-01-30T14:49:38;9.97;;;8.93;;
10166;SDS011;62970;53.130;8.244;2024-01-30T14:52:07;11.33;;;8.60;;
10166;SDS011;62970;53.130;8.244;2024-01-30T14:54:36;9.50;;;8.63;;
10166;SDS011;62970;53.130;8.244;2024-01-30T14:57:08;9.30;;;8.37;;
10166;SDS011;62970;53.130;8.244;2024-01-30T14:59:39;10.10;;;8.50;;
10166;SDS011;62970;53.130;8.244;2024-01-30T15:02:08;10.70;;;8.57;;
10166;SDS011;62970;53.130;8.244;2024-01-30T15:04:38;9.80;;;8.40;;
10166;SDS011;62970;53.130;8.244;2024-01-30T15:07:08;9.13;;;8.33;;
10166;SDS011;62970;53.130;8.244;2024-01-30T15:09:40;9.67;;;8.70;;
10166;SDS011;62970;53.130;8.244;2024-01-30T15:12:09;9.47;;;8.47;;
10166;SDS011;62970;53.130;8.244;2024-01-30T15:14:39;9.67;;;8.73;;
10166;SDS011;62970;53.130;8.244;2024-01-30T15:17:15;10.30;;;8.80;;
10166;SDS011;62970;53.130;8.244;2024-01-30T15:19:46;9.23;;;8.20;;
10166;SDS011;62970;53.130;8.244;2024-01-30T15:22:16;10.07;;;8.80;;
10166;SDS011;62970;53.130;8.244;2024-01-30T15:24:48;10.30;;;8.80;;
10166;SDS011;62970;53.130;8.244;2024-01-30T15:27:17;10.07;;;9.07;;
10166;SDS011;62970;53.130;8.244;2024-01-30T15:29:47;9.30;;;8.33;;
10166;SDS011;62970;53.130;8.244;2024-01-30T15:32:16;11.63;;;8.70;;
10166;SDS011;62970;53.130;8.244;2024-01-30T15:34:45;9.90;;;8.50;;
10166;SDS011;62970;53.130;8.244;2024-01-30T15:37:15;10.67;;;7.80;;
10166;SDS011;62970;53.130;8.244;2024-01-30T15:39:44;11.13;;;8.00;;
10166;SDS011;62970;53.130;8.244;2024-01-30T15:42:16;9.00;;;6.93;;
10166;SDS011;62970;53.130;8.244;2024-01-30T15:44:45;10.47;;;6.37;;
10166;SDS011;62970;53.130;8.244;2024-01-30T15:47:15;7.40;;;6.70;;
10166;SDS011;62970;53.130;8.244;2024-01-30T15:49:47;6.83;;;6.07;;
10166;SDS011;62970;53.130;8.244;2024-01-30T15:52:16;6.87;;;5.53;;
10166;SDS011;62970;53.130;8.244;2024-01-30T15:54:49;6.33;;;5.73;;
10166;SDS011;62970;53.130;8.244;2024-01-30T15:57:18;9.40;;;6.50;;
10166;SDS011;62970;53.130;8.244;2024-01-30T15:59:47;7.50;;;5.23;;
10166;SDS011;62970;53.130;8.244;2024-01-30T16:02:17;5.70;;;5.20;;
10166;SDS011;62970;53.130;8.244;2024-01-30T16:04:48;6.60;;;5.83;;
10166;SDS011;62970;53.130;8.244;2024-01-30T16:07:17;5.97;;;5.37;;
10166;SDS011;62970;53.130;8.244;2024-01-30T16:09:49;5.63;;;4.93;;
10166;SDS011;62970;53.130;8.244;2024-01-30T16:12:18;5.03;;;4.53;;
10166;SDS011;62970;53.130;8.244;2024-01-30T16:14:48;4.40;;;4.00;;
10166;SDS011;62970;53.130;8.244;2024-01-30T16:17:17;3.37;;;3.07;;
10166;SDS011;62970;53.130;8.244;2024-01-30T16:19:47;3.83;;;3.17;;
10166;SDS011;62970;53.130;8.244;2024-01-30T16:22:17;2.93;;;2.63;;
10166;SDS011;62970;53.130;8.244;2024-01-30T16:24:49;2.80;;;2.57;;
10166;SDS011;62970;53.130;8.244;2024-01-30T16:27:18;3.17;;;2.67;;
10166;SDS011;62970;53.130;8.244;2024-01-30T16:29:47;3.07;;;2.77;;
10166;SDS011;62970;53.130;8.244;2024-01-30T16:32:16;3.80;;;2.63;;
10166;SDS011;62970;53.130;8.244;2024-01-30T16:34:47;3.30;;;2.83;;
10166;SDS011;62970;53.130;8.244;2024-01-30T16:37:16;3.03;;;2.60;;
10166;SDS011;62970;53.130;8.244;2024-01-30T16:39:49;3.63;;;2.90;;
10166;SDS011;62970;53.130;8.244;2024-01-30T16:42:20;3.20;;;3.00;;
10166;SDS011;62970;53.130;8.244;2024-01-30T16:44:53;3.10;;;2.90;;
10166;SDS011;62970;53.130;8.244;2024-01-30T16:47:22;3.13;;;2.83;;
10166;SDS011;62970;53.130;8.244;2024-01-30T16:49:52;3.63;;;3.00;;
10166;SDS011;62970;53.130;8.244;2024-01-30T16:52:21;4.00;;;3.07;;
10166;SDS011;62970;53.130;8.244;2024-01-30T16:54:54;3.43;;;3.13;;
10166;SDS011;62970;53.130;8.244;2024-01-30T16:57:23;5.20;;;3.40;;
10166;SDS011;62970;53.130;8.244;2024-01-30T16:59:53;4.10;;;3.80;;
10166;SDS011;62970;53.130;8.244;2024-01-30T17:02:22;4.17;;;3.23;;
10166;SDS011;62970;53.130;8.244;2024-01-30T17:04:51;3.33;;;3.03;;
10166;SDS011;62970;53.130;8.244;2024-01-30T17:07:23;3.00;;;2.70;;
10166;SDS011;62970;53.130;8.244;2024-01-30T17:10:01;3.13;;;2.27;;
10166;SDS011;62970;53.130;8.244;2024-01-30T17:12:31;2.93;;;2.10;;
10166;SDS011;62970;53.130;8.244;2024-01-30T17:15:00;2.10;;;2.00;;
10166;SDS011;62970;53.130;8.244;2024-01-30T17:17:30;1.90;;;1.80;;
10166;SDS011;62970;53.130;8.244;2024-01-30T17:19:59;2.17;;;1.97;;
10166;SDS011;62970;53.130;8.244;2024-01-30T17:22:28;2.20;;;1.97;;
10166;SDS011;62970;53.130;8.244;2024-01-30T17:25:01;1.80;;;1.70;;
10166;SDS011;62970;53.130;8.244;2024-01-30T17:27:29;2.87;;;2.10;;
10166;SDS011;62970;53.130;8.244;2024-01-30T17:29:58;2.67;;;2.47;;
10166;SDS011;62970;53.130;8.244;2024-01-30T17:32:28;2.50;;;2.27;;
10166;SDS011;62970;53.130;8.244;2024-01-30T17:34:57;3.73;;;2.50;;
10166;SDS011;62970;53.130;8.244;2024-01-30T17:37:28;3.10;;;2.90;;
10166;SDS011;62970;53.130;8.244;2024-01-30T17:40:01;3.73;;;2.77;;
10166;SDS011;62970;53.130;8.244;2024-01-30T17:42:31;3.63;;;3.03;;
10166;SDS011;62970;53.130;8.244;2024-01-30T17:45:00;3.17;;;2.87;;
10166;SDS011;62970;53.130;8.244;2024-01-30T17:47:30;3.30;;;3.00;;
10166;SDS011;62970;53.130;8.244;2024-01-30T17:49:59;4.30;;;3.50;;
10166;SDS011;62970;53.130;8.244;2024-01-30T17:52:28;4.27;;;3.87;;
10166;SDS011;62970;53.130;8.244;2024-01-30T17:54:57;5.57;;;4.03;;
10166;SDS011;62970;53.130;8.244;2024-01-30T17:57:29;4.77;;;3.30;;
10166;SDS011;62970;53.130;8.244;2024-01-30T17:59:59;3.80;;;3.40;;
10166;SDS011;62970;53.130;8.244;2024-01-30T18:02:31;4.27;;;3.87;;
10166;SDS011;62970;53.130;8.244;2024-01-30T18:05:00;3.87;;;3.57;;
10166;SDS011;62970;53.130;8.244;2024-01-30T18:07:30;3.90;;;3.60;;
10166;SDS011;62970;53.130;8.244;2024-01-30T18:10:02;4.13;;;3.73;;
10166;SDS011;62970;53.130;8.244;2024-01-30T18:12:32;3.87;;;3.57;;
10166;SDS011;62970;53.130;8.244;2024-01-30T18:15:02;4.03;;;3.73;;
10166;SDS011;62970;53.130;8.244;2024-01-30T18:17:32;3.80;;;3.50;;
10166;SDS011;62970;53.130;8.244;2024-01-30T18:20:02;4.70;;;4.23;;
10166;SDS011;62970;53.130;8.244;2024-01-30T18:22:33;4.00;;;3.70;;
10166;SDS011;62970;53.130;8.244;2024-01-30T18:25:08;4.67;;;4.20;;
10166;SDS011;62970;53.130;8.244;2024-01-30T18:27:38;4.77;;;4.37;;
10166;SDS011;62970;53.130;8.244;2024-01-30T18:30:09;5.30;;;4.80;;
10166;SDS011;62970;53.130;8.244;2024-01-30T18:32:39;5.03;;;4.53;;
10166;SDS011;62970;53.130;8.244;2024-01-30T18:35:09;5.17;;;4.73;;
10166;SDS011;62970;53.130;8.244;2024-01-30T18:37:38;5.60;;;4.97;;
10166;SDS011;62970;53.130;8.244;2024-01-30T18:40:10;4.70;;;4.40;;
10166;SDS011;62970;53.130;8.244;2024-01-30T18:42:40;4.57;;;4.27;;
10166;SDS011;62970;53.130;8.244;2024-01-30T18:45:10;4.87;;;4.47;;
10166;SDS011;62970;53.130;8.244;2024-01-30T18:47:39;4.90;;;4.50;;
10166;SDS011;62970;53.130;8.244;2024-01-30T18:50:08;5.00;;;4.60;;
10166;SDS011;62970;53.130;8.244;2024-01-30T18:52:38;4.80;;;4.30;;
10166;SDS011;62970;53.130;8.244;2024-01-30T18:55:10;4.63;;;4.23;;
10166;SDS011;62970;53.130;8.244;2024-01-30T18:57:39;4.87;;;4.47;;
10166;SDS011;62970;53.130;8.244;2024-01-30T19:00:10;4.70;;;4.30;;
10166;SDS011;62970;53.130;8.244;2024-01-30T19:02:41;4.93;;;4.53;;
10166;SDS011;62970;53.130;8.244;2024-01-30T19:05:14;7.43;;;4.60;;
10166;SDS011;62970;53.130;8.244;2024-01-30T19:07:43;4.80;;;4.40;;
10166;SDS011;62970;53.130;8.244;2024-01-30T19:10:17;4.23;;;3.93;;
10166;SDS011;62970;53.130;8.244;2024-01-30T19:12:46;4.87;;;4.37;;
10166;SDS011;62970;53.130;8.244;2024-01-30T19:15:17;4.50;;;4.10;;
10166;SDS011;62970;53.130;8.244;2024-01-30T19:17:46;4.00;;;3.70;;
10166;SDS011;62970;53.130;8.244;2024-01-30T19:20:16;4.23;;;3.90;;
10166;SDS011;62970;53.130;8.244;2024-01-30T19:22:47;4.30;;;3.90;;
10166;SDS011;62970;53.130;8.244;2024-01-30T19:25:21;4.30;;;3.90;;
10166;SDS011;62970;53.130;8.244;2024-01-30T19:27:51;4.20;;;3.80;;
10166;SDS011;62970;53.130;8.244;2024-01-30T19:30:24;4.83;;;4.43;;
10166;SDS011;62970;53.130;8.244;2024-01-30T19:32:57;3.90;;;3.60;;
10166;SDS011;62970;53.130;8.244;2024-01-30T19:35:26;3.63;;;3.33;;
10166;SDS011;62970;53.130;8.244;2024-01-30T19:37:56;3.93;;;3.60;;
10166;SDS011;62970;53.130;8.244;2024-01-30T19:40:30;3.80;;;3.50;;
10166;SDS011;62970;53.130;8.244;2024-01-30T19:43:00;3.60;;;3.30;;
10166;SDS011;62970;53.130;8.244;2024-01-30T19:45:29;3.50;;;3.20;;
10166;SDS011;62970;53.130;8.244;2024-01-30T19:47:59;3.70;;;3.40;;
10166;SDS011;62970;53.130;8.244;2024-01-30T19:50:29;3.37;;;3.07;;
10166;SDS011;62970;53.130;8.244;2024-01-30T19:52:59;3.77;;;3.40;;
10166;SDS011;62970;53.130;8.244;2024-01-30T19:55:31;4.10;;;3.30;;
10166;SDS011;62970;53.130;8.244;2024-01-30T19:58:00;2.97;;;2.77;;
10166;SDS011;62970;53.130;8.244;2024-01-30T20:00:30;3.47;;;2.70;;
10166;SDS011;62970;53.130;8.244;2024-01-30T20:02:59;2.70;;;2.43;;
10166;SDS011;62970;53.130;8.244;2024-01-30T20:05:28;2.90;;;2.60;;
10166;SDS011;62970;53.130;8.244;2024-01-30T20:07:57;4.93;;;2.23;;
10166;SDS011;62970;53.130;8.244;2024-01-30T20:10:27;2.37;;;2.17;;
10166;SDS011;62970;53.130;8.244;2024-01-30T20:12:58;3.50;;;2.60;;
10166;SDS011;62970;53.130;8.244;2024-01-30T20:15:27;2.30;;;2.10;;
10166;SDS011;62970;53.130;8.244;2024-01-30T20:17:57;2.10;;;1.90;;
10166;SDS011;62970;53.130;8.244;2024-01-30T20:20:27;2.00;;;1.73;;
10166;SDS011;62970;53.130;8.244;2024-01-30T20:22:56;1.90;;;1.80;;
10166;SDS011;62970;53.130;8.244;2024-01-30T20:25:25;2.87;;;1.63;;
10166;SDS011;62970;53.130;8.244;2024-01-30T20:27:58;3.00;;;2.00;;
10166;SDS011;62970;53.130;8.244;2024-01-30T20:30:27;2.20;;;1.97;;
10166;SDS011;62970;53.130;8.244;2024-01-30T20:32:58;2.33;;;2.03;;
10166;SDS011;62970;53.130;8.244;2024-01-30T20:35:27;2.23;;;2.03;;
10166;SDS011;62970;53.130;8.244;2024-01-30T20:37:57;2.33;;;2.13;;
10166;SDS011;62970;53.130;8.244;2024-01-30T20:40:26;3.10;;;2.47;;
10166;SDS011;62970;53.130;8.244;2024-01-30T20:42:58;3.03;;;2.00;;
10166;SDS011;62970;53.130;8.244;2024-01-30T20:45:27;3.83;;;2.30;;
10166;SDS011;62970;53.130;8.244;2024-01-30T20:47:56;3.07;;;2.23;;
10166;SDS011;62970;53.130;8.244;2024-01-30T20:50:26;5.83;;;2.60;;
10166;SDS011;62970;53.130;8.244;2024-01-30T20:52:55;3.97;;;3.00;;
10166;SDS011;62970;53.130;8.244;2024-01-30T20:55:25;4.93;;;2.53;;
10166;SDS011;62970;53.130;8.244;2024-01-30T20:57:54;4.30;;;2.53;;
10166;SDS011;62970;53.130;8.244;2024-01-30T21:00:26;4.53;;;2.70;;
10166;SDS011;62970;53.130;8.244;2024-01-30T21:02:55;4.13;;;2.23;;
10166;SDS011;62970;53.130;8.244;2024-01-30T21:05:24;4.03;;;2.10;;
10166;SDS011;62970;53.130;8.244;2024-01-30T21:07:54;3.27;;;2.10;;
10166;SDS011;62970;53.130;8.244;2024-01-30T21:10:23;3.60;;;2.10;;
10166;SDS011;62970;53.130;8.244;2024-01-30T21:12:53;4.60;;;2.37;;
10166;SDS011;62970;53.130;8.244;2024-01-30T21:15:24;3.27;;;2.10;;
10166;SDS011;62970;53.130;8.244;2024-01-30T21:17:54;4.73;;;2.07;;
10166;SDS011;62970;53.130;8.244;2024-01-30T21:20:23;5.63;;;2.03;;
10166;SDS011;62970;53.130;8.244;2024-01-30T21:22:52;3.27;;;1.93;;
10166;SDS011;62970;53.130;8.244;2024-01-30T21:25:21;5.43;;;1.67;;
10166;SDS011;62970;53.130;8.244;2024-01-30T21:27:50;5.67;;;1.83;;
10166;SDS011;62970;53.130;8.244;2024-01-30T21:30:19;5.40;;;1.70;;
10166;SDS011;62970;53.130;8.244;2024-01-30T21:32:51;4.73;;;1.90;;
10166;SDS011;62970;53.130;8.244;2024-01-30T21:35:20;5.30;;;1.77;;
10166;SDS011;62970;53.130;8.244;2024-01-30T21:37:50;5.53;;;2.00;;
10166;SDS011;62970;53.130;8.244;2024-01-30T21:40:19;4.53;;;1.83;;
10166;SDS011;62970;53.130;8.244;2024-01-30T21:42:48;4.27;;;1.97;;
10166;SDS011;62970;53.130;8.244;2024-01-30T21:45:18;3.90;;;1.70;;
10166;SDS011;62970;53.130;8.244;2024-01-30T21:47:49;3.77;;;1.67;;
10166;SDS011;62970;53.130;8.244;2024-01-30T21:50:20;4.37;;;1.60;;
10166;SDS011;62970;53.130;8.244;2024-01-30T21:52:50;3.33;;;1.60;;
10166;SDS011;62970;53.130;8.244;2024-01-30T21:55:20;3.37;;;1.47;;
10166;SDS011;62970;53.130;8.244;2024-01-30T21:57:49;6.70;;;1.73;;
10166;SDS011;62970;53.130;8.244;2024-01-30T22:00:18;5.07;;;1.70;;
10166;SDS011;62970;53.130;8.244;2024-01-30T22:02:48;2.17;;;1.60;;
10166;SDS011;62970;53.130;8.244;2024-01-30T22:05:20;3.67;;;2.00;;
10166;SDS011;62970;53.130;8.244;2024-01-30T22:07:49;6.13;;;1.73;;
10166;SDS011;62970;53.130;8.244;2024-01-30T22:10:19;6.73;;;1.83;;
10166;SDS011;62970;53.130;8.244;2024-01-30T22:12:48;4.23;;;1.77;;
10166;SDS011;62970;53.130;8.244;2024-01-30T22:15:17;5.80;;;1.73;;
10166;SDS011;62970;53.130;8.244;2024-01-30T22:17:47;3.50;;;2.00;;
10166;SDS011;62970;53.130;8.244;2024-01-30T22:20:19;3.80;;;1.67;;
10166;SDS011;62970;53.130;8.244;2024-01-30T22:22:48;5.77;;;1.70;;
10166;SDS011;62970;53.130;8.244;2024-01-30T22:25:17;6.17;;;1.73;;
10166;SDS011;62970;53.130;8.244;2024-01-30T22:27:46;4.40;;;1.83;;
10166;SDS011;62970;53.130;8.244;2024-01-30T22:30:16;5.13;;;1.73;;
10166;SDS011;62970;53.130;8.244;2024-01-30T22:32:45;5.63;;;1.50;;
10166;SDS011;62970;53.130;8.244;2024-01-30T22:35:15;5.60;;;1.73;;
10166;SDS011;62970;53.130;8.244;2024-01-30T22:37:46;6.20;;;1.90;;
10166;SDS011;62970;53.130;8.244;2024-01-30T22:40:16;7.03;;;2.13;;
10166;SDS011;62970;53.130;8.244;2024-01-30T22:42:45;4.40;;;1.63;;
10166;SDS011;62970;53.130;8.244;2024-01-30T22:45:15;3.93;;;1.70;;
10166;SDS011;62970;53.130;8.244;2024-01-30T22:47:44;2.83;;;1.63;;
10166;SDS011;62970;53.130;8.244;2024-01-30T22:50:14;4.00;;;1.50;;
10166;SDS011;62970;53.130;8.244;2024-01-30T22:52:43;3.23;;;1.40;;
10166;SDS011;62970;53.130;8.244;2024-01-30T22:55:20;3.13;;;1.27;;
10166;SDS011;62970;53.130;8.244;2024-01-30T22:57:51;4.07;;;1.40;;
10166;SDS011;62970;53.130;8.244;2024-01-30T23:00:20;3.07;;;1.30;;
10166;SDS011;62970;53.130;8.244;2024-01-30T23:02:51;3.23;;;1.20;;
10166;SDS011;62970;53.130;8.244;2024-01-30T23:05:21;1.63;;;0.83;;
10166;SDS011;62970;53.130;8.244;2024-01-30T23:07:56;2.03;;;0.97;;
10166;SDS011;62970;53.130;8.244;2024-01-30T23:10:25;3.33;;;1.00;;
10166;SDS011;62970;53.130;8.244;2024-01-30T23:12:54;3.90;;;1.00;;
10166;SDS011;62970;53.130;8.244;2024-01-30T23:15:24;4.20;;;1.30;;
10166;SDS011;62970;53.130;8.244;2024-01-30T23:17:55;4.07;;;1.20;;
10166;SDS011;62970;53.130;8.244;2024-01-30T23:20:24;3.67;;;1.00;;
10166;SDS011;62970;53.130;8.244;2024-01-30T23:22:56;3.30;;;0.90;;
10166;SDS011;62970;53.130;8.244;2024-01-30T23:25:25;1.87;;;1.20;;
10166;SDS011;62970;53.130;8.244;2024-01-30T23:27:54;2.30;;;1.00;;
10166;SDS011;62970;53.130;8.244;2024-01-30T23:30:23;2.10;;;1.00;;
10166;SDS011;62970;53.130;8.244;2024-01-30T23:32:53;2.60;;;0.80;;
10166;SDS011;62970;53.130;8.244;2024-01-30T23:35:22;3.10;;;0.90;;
10166;SDS011;62970;53.130;8.244;2024-01-30T23:37:51;0.60;;;0.57;;
10166;SDS011;62970;53.130;8.244;2024-01-30T23:40:23;2.33;;;0.77;;
10166;SDS011;62970;53.130;8.244;2024-01-30T23:42:57;2.60;;;0.80;;
10166;SDS011;62970;53.130;8.244;2024-01-30T23:45:26;1.57;;;0.60;;
10166;SDS011;62970;53.130;8.244;2024-01-30T23:47:55;3.40;;;0.83;;
10166;SDS011;62970;53.130;8.244;2024-01-30T23:50:24;2.17;;;1.03;;
10166;SDS011;62970;53.130;8.244;2024-01-30T23:52:54;3.17;;;0.80;;
10166;SDS011;62970;53.130;8.244;2024-01-30T23:55:26;2.53;;;1.10;;
10166;SDS011;62970;53.130;8.244;2024-01-30T23:57:55;1.97;;;0.80;;
